Slobozia, Romania
Current Conditions -  °F | °C
As of 12:30 AM on Thursday 18 Dec 2014 (Local Time) from LRBS Reporting Station
Moderate Fog Moderate Fog  
Wind Chill: 30°   Ceiling: 100
Heat Index: 36°   Visibility: 0.5mi
Dew Point: 34°   Wind: 7mph
Humidity: 93%   Direction: 230°SW
Pressure: 29.91"   Gusts: NA
Location:  44.57°N, 27.38°E
Report Text: LRBS 172130Z 23006KT 0800 R07/1800VP2000D R25/1600VP2000D FGBKN001 02/01 Q1013 NOSIG
Loading
Personal Weather Stations






























Interactive Weather Map New forecast layout! Learn more

10-Day Weather Forecast

Advertisements
Track Severe Weather on mobile